createdAt,value
2023-04-03T00:00:28.103Z,0
2023-04-03T00:01:29.158Z,0
2023-04-03T00:02:30.026Z,0
2023-04-03T00:03:29.986Z,0
2023-04-03T00:04:30.920Z,0
2023-04-03T00:05:30.792Z,0
2023-04-03T00:06:31.505Z,0
2023-04-03T00:07:31.808Z,0
2023-04-03T00:08:32.731Z,0
2023-04-03T00:09:33.244Z,0
2023-04-03T00:10:33.292Z,0
2023-04-03T00:11:34.379Z,0
2023-04-03T00:12:35.299Z,0
2023-04-03T00:13:36.001Z,0
2023-04-03T00:14:36.840Z,0
2023-04-03T00:15:37.125Z,0
2023-04-03T00:16:38.006Z,0
2023-04-03T00:17:39.301Z,0
2023-04-03T00:18:39.338Z,0
2023-04-03T00:19:40.071Z,0
2023-04-03T00:20:41.508Z,0
2023-04-03T00:21:41.013Z,0
2023-04-03T00:22:41.692Z,0
2023-04-03T00:23:42.634Z,0
2023-04-03T00:24:43.402Z,0
2023-04-03T00:25:43.957Z,0
2023-04-03T00:26:44.676Z,0
2023-04-03T00:27:45.607Z,0
2023-04-03T00:28:46.107Z,0
2023-04-03T00:29:46.406Z,0
2023-04-03T00:30:47.712Z,0
2023-04-03T00:31:48.913Z,0
2023-04-03T00:32:49.462Z,0
2023-04-03T00:33:50.433Z,0
2023-04-03T00:34:51.368Z,0
2023-04-03T00:35:52.366Z,0
2023-04-03T00:36:52.930Z,0
2023-04-03T00:37:53.050Z,0
2023-04-03T00:38:53.572Z,0
2023-04-03T00:39:54.504Z,0
2023-04-03T00:40:55.494Z,0
2023-04-03T00:41:55.236Z,0
2023-04-03T00:42:56.346Z,0
2023-04-03T00:43:57.018Z,0
2023-04-03T00:44:57.318Z,0
2023-04-03T00:45:57.896Z,0
2023-04-03T00:46:58.668Z,0
2023-04-03T00:47:59.707Z,0
2023-04-03T00:48:59.691Z,0
2023-04-03T00:50:00.674Z,0
2023-04-03T00:51:00.460Z,0
2023-04-03T00:52:00.579Z,0
2023-04-03T00:53:01.085Z,0
2023-04-03T00:54:01.420Z,0
2023-04-03T00:55:02.144Z,0
2023-04-03T00:56:02.469Z,0
2023-04-03T00:57:03.606Z,0
2023-04-03T00:58:03.384Z,0
2023-04-03T00:59:03.898Z,0
2023-04-03T01:00:04.201Z,0
2023-04-03T01:01:05.251Z,0
2023-04-03T01:02:06.670Z,0
2023-04-03T01:03:06.621Z,0
2023-04-03T01:04:07.558Z,0
2023-04-03T01:05:08.808Z,0
2023-04-03T01:06:09.318Z,0
2023-04-03T01:07:10.004Z,0
2023-04-03T01:08:10.495Z,0
2023-04-03T01:09:11.219Z,0
2023-04-03T01:10:12.300Z,0
2023-04-03T01:11:13.257Z,0
2023-04-03T01:12:14.202Z,0
2023-04-03T01:13:14.716Z,0
2023-04-03T01:14:16.197Z,0
2023-04-03T01:15:16.887Z,0
2023-04-03T01:16:17.783Z,0
2023-04-03T01:17:18.409Z,0
2023-04-03T01:18:19.368Z,0
2023-04-03T01:19:20.068Z,0
2023-04-03T01:20:20.972Z,0
2023-04-03T01:21:21.747Z,0
2023-04-03T01:22:22.434Z,0
2023-04-03T01:23:23.476Z,0
2023-04-03T01:24:24.428Z,0
2023-04-03T01:25:25.395Z,0
2023-04-03T01:26:25.878Z,0
2023-04-03T01:27:26.936Z,0
2023-04-03T01:28:27.041Z,0
2023-04-03T01:29:27.025Z,0
2023-04-03T01:30:27.944Z,0
2023-04-03T01:31:29.042Z,0
2023-04-03T01:32:29.885Z,0
2023-04-03T01:33:30.620Z,0
2023-04-03T01:34:31.339Z,0
2023-04-03T01:35:31.940Z,0
2023-04-03T01:36:32.850Z,0
2023-04-03T01:37:33.529Z,0
2023-04-03T01:38:34.436Z,0
2023-04-03T01:39:35.189Z,0
2023-04-03T01:40:36.269Z,0
2023-04-03T01:41:36.792Z,0
2023-04-03T01:42:37.696Z,0
2023-04-03T01:43:38.825Z,0
2023-04-03T01:44:39.155Z,0
2023-04-03T01:45:39.782Z,0
2023-04-03T01:46:40.135Z,0
2023-04-03T01:47:41.069Z,0
2023-04-03T01:48:41.611Z,0
2023-04-03T01:49:41.960Z,0
2023-04-03T01:50:43.109Z,0
2023-04-03T01:51:43.544Z,0
2023-04-03T01:52:44.080Z,0
2023-04-03T01:53:44.556Z,0
2023-04-03T01:54:45.283Z,0
2023-04-03T01:55:46.040Z,0
2023-04-03T01:56:46.736Z,0
2023-04-03T01:57:47.563Z,0
2023-04-03T01:58:48.383Z,0
2023-04-03T01:59:48.487Z,0
2023-04-03T02:00:49.443Z,0
2023-04-03T02:01:50.270Z,0
2023-04-03T02:02:51.266Z,0
2023-04-03T02:03:51.952Z,0
2023-04-03T02:04:52.740Z,0
2023-04-03T02:05:53.472Z,0
2023-04-03T02:06:54.165Z,0
2023-04-03T02:07:54.870Z,0
2023-04-03T02:08:54.775Z,0
2023-04-03T02:09:55.489Z,0
2023-04-03T02:10:56.197Z,0
2023-04-03T02:11:56.263Z,0
2023-04-03T02:12:57.005Z,0
2023-04-03T02:13:57.702Z,0
2023-04-03T02:14:58.160Z,0
2023-04-03T02:15:58.692Z,0
2023-04-03T02:16:59.614Z,0
2023-04-03T02:18:00.329Z,0
2023-04-03T02:19:01.168Z,0
2023-04-03T02:20:01.671Z,0
2023-04-03T02:21:02.779Z,0
2023-04-03T02:22:03.242Z,0
2023-04-03T02:23:03.713Z,0
2023-04-03T02:24:04.244Z,0
2023-04-03T02:25:04.762Z,0
2023-04-03T02:26:05.717Z,0
2023-04-03T02:27:06.257Z,0
2023-04-03T02:28:07.187Z,0
2023-04-03T02:29:07.912Z,0
2023-04-03T02:30:08.604Z,0
2023-04-03T02:31:09.361Z,0
2023-04-03T02:32:09.933Z,0
2023-04-03T02:33:11.028Z,0
2023-04-03T02:34:10.510Z,0
2023-04-03T02:35:11.006Z,0
2023-04-03T02:36:11.768Z,0
2023-04-03T02:37:12.285Z,0
2023-04-03T02:38:13.388Z,0
2023-04-03T02:39:13.911Z,0
2023-04-03T02:40:14.442Z,0
2023-04-03T02:41:15.303Z,0
2023-04-03T02:42:15.916Z,0
2023-04-03T02:43:17.027Z,0
2023-04-03T02:44:16.944Z,0
2023-04-03T02:45:17.849Z,0
2023-04-03T02:46:18.801Z,0
2023-04-03T02:47:19.391Z,0
2023-04-03T02:48:20.382Z,0
2023-04-03T02:49:19.870Z,0
2023-04-03T02:50:20.972Z,0
2023-04-03T02:51:21.166Z,0
2023-04-03T02:52:21.603Z,0
2023-04-03T02:53:21.896Z,0
2023-04-03T02:54:22.675Z,0
2023-04-03T02:55:23.172Z,0
2023-04-03T02:56:24.081Z,0
2023-04-03T02:57:24.907Z,0
2023-04-03T02:58:25.395Z,0
2023-04-03T02:59:25.903Z,0
2023-04-03T03:00:26.384Z,0
2023-04-03T03:01:27.093Z,0
2023-04-03T03:02:28.340Z,0
2023-04-03T03:03:28.700Z,0
2023-04-03T03:04:29.623Z,0
2023-04-03T03:05:29.958Z,0
2023-04-03T03:06:30.688Z,0
2023-04-03T03:07:31.575Z,0
2023-04-03T03:08:32.176Z,0
2023-04-03T03:09:32.468Z,0
2023-04-03T03:10:33.432Z,0
2023-04-03T03:11:33.460Z,0
2023-04-03T03:12:33.993Z,0
2023-04-03T03:13:34.924Z,0
2023-04-03T03:14:35.084Z,0
2023-04-03T03:15:34.785Z,0
2023-04-03T03:16:36.252Z,0
2023-04-03T03:17:37.095Z,0
2023-04-03T03:18:37.201Z,0
2023-04-03T03:19:38.100Z,0
2023-04-03T03:20:38.756Z,0
2023-04-03T03:21:39.525Z,0
2023-04-03T03:22:42.098Z,0
2023-04-03T03:23:40.649Z,0
2023-04-03T03:24:41.569Z,0
2023-04-03T03:25:43.329Z,0
2023-04-03T03:26:43.474Z,0
2023-04-03T03:27:43.957Z,0
2023-04-03T03:28:44.480Z,0
2023-04-03T03:29:45.193Z,0
2023-04-03T03:30:45.468Z,0
2023-04-03T03:31:45.997Z,0
2023-04-03T03:32:47.145Z,0
2023-04-03T03:33:47.153Z,0
2023-04-03T03:34:48.025Z,0
2023-04-03T03:35:49.262Z,0
2023-04-03T03:36:49.266Z,0
2023-04-03T03:37:49.805Z,0
2023-04-03T03:38:50.483Z,0
2023-04-03T03:39:50.875Z,0
2023-04-03T03:40:51.632Z,0
2023-04-03T03:41:52.779Z,0
2023-04-03T03:42:53.568Z,0
2023-04-03T03:43:54.083Z,0
2023-04-03T03:44:54.777Z,0
2023-04-03T03:45:55.084Z,0
2023-04-03T03:46:56.412Z,0
2023-04-03T03:47:57.142Z,0
2023-04-03T03:48:57.284Z,0
2023-04-03T03:49:58.181Z,0
2023-04-03T03:50:58.879Z,0
2023-04-03T03:51:59.860Z,0
2023-04-03T03:53:00.502Z,0
2023-04-03T03:54:00.995Z,0
2023-04-03T03:55:01.512Z,0
2023-04-03T03:56:02.240Z,0
2023-04-03T03:57:02.562Z,0
2023-04-03T03:58:02.509Z,0
2023-04-03T03:59:03.070Z,0
2023-04-03T04:00:03.630Z,0
2023-04-03T04:01:04.551Z,0
2023-04-03T04:02:05.284Z,0
2023-04-03T04:03:08.039Z,0
2023-04-03T04:04:06.863Z,0
2023-04-03T04:05:07.952Z,0
2023-04-03T04:06:07.668Z,0
2023-04-03T04:07:08.297Z,0
2023-04-03T04:08:08.596Z,0
2023-04-03T04:09:08.905Z,0
2023-04-03T04:10:09.380Z,0
2023-04-03T04:11:10.340Z,0
2023-04-03T04:12:11.127Z,0
2023-04-03T04:13:10.774Z,0
2023-04-03T04:14:11.493Z,0
2023-04-03T04:15:12.334Z,0
2023-04-03T04:16:12.832Z,0
2023-04-03T04:17:13.639Z,0
2023-04-03T04:18:13.799Z,0
2023-04-03T04:19:15.194Z,0
2023-04-03T04:20:15.078Z,0
2023-04-03T04:21:15.151Z,0
2023-04-03T04:22:15.879Z,0
2023-04-03T04:23:16.291Z,0
2023-04-03T04:24:17.304Z,0
2023-04-03T04:25:17.986Z,0
2023-04-03T04:26:18.924Z,0
2023-04-03T04:27:19.657Z,0
2023-04-03T04:28:20.337Z,0
2023-04-03T04:29:21.263Z,0
2023-04-03T04:30:20.781Z,0
2023-04-03T04:31:21.654Z,0
2023-04-03T04:32:21.844Z,0
2023-04-03T04:33:21.978Z,0
2023-04-03T04:34:22.892Z,0
2023-04-03T04:35:26.259Z,0
2023-04-03T04:36:23.986Z,4
2023-04-03T04:37:25.057Z,4
2023-04-03T04:38:25.547Z,4
2023-04-03T04:39:26.046Z,0
2023-04-03T04:40:26.536Z,0
2023-04-03T04:41:27.446Z,4
2023-04-03T04:42:28.940Z,4
2023-04-03T04:43:28.734Z,4
2023-04-03T04:44:29.064Z,4
2023-04-03T04:45:29.799Z,4
2023-04-03T04:46:31.038Z,4
2023-04-03T04:47:31.282Z,4
2023-04-03T04:48:32.704Z,4
2023-04-03T04:49:31.715Z,8
2023-04-03T04:50:32.826Z,4
2023-04-03T04:51:51.865Z,8
2023-04-03T04:52:34.455Z,8
2023-04-03T04:53:34.780Z,8
2023-04-03T04:54:35.528Z,8
2023-04-03T04:55:36.199Z,8
2023-04-03T04:56:37.251Z,12
2023-04-03T04:57:37.186Z,12
2023-04-03T04:58:37.298Z,12
2023-04-03T04:59:37.848Z,12
2023-04-03T05:00:38.994Z,12
2023-04-03T05:01:39.740Z,16
2023-04-03T05:02:39.886Z,20
2023-04-03T05:03:40.605Z,16
2023-04-03T05:04:41.725Z,16
2023-04-03T05:05:42.006Z,20
2023-04-03T05:06:42.487Z,20
2023-04-03T05:07:43.228Z,20
2023-04-03T05:08:44.128Z,24
2023-04-03T05:09:44.224Z,24
2023-04-03T05:10:44.710Z,28
2023-04-03T05:11:45.459Z,24
2023-04-03T05:12:46.249Z,32
2023-04-03T05:13:46.908Z,28
2023-04-03T05:14:47.425Z,32
2023-04-03T05:15:48.774Z,32
2023-04-03T05:16:50.262Z,28
2023-04-03T05:17:49.575Z,36
2023-04-03T05:18:49.130Z,36
2023-04-03T05:19:49.616Z,40
2023-04-03T05:20:50.336Z,44
2023-04-03T05:21:51.038Z,48
2023-04-03T05:22:51.693Z,52
2023-04-03T05:23:52.083Z,52
2023-04-03T05:24:52.784Z,60
2023-04-03T05:25:53.255Z,60
2023-04-03T05:26:54.010Z,64
2023-04-03T05:27:54.524Z,68
2023-04-03T05:28:54.995Z,76
2023-04-03T05:29:55.960Z,76
2023-04-03T05:30:56.098Z,76
2023-04-03T05:31:56.445Z,76
2023-04-03T05:32:56.481Z,72
2023-04-03T05:33:57.296Z,80
2023-04-03T05:34:59.439Z,80
2023-04-03T05:35:59.577Z,84
2023-04-03T05:37:00.210Z,76
2023-04-03T05:38:00.975Z,80
2023-04-03T05:39:01.282Z,80
2023-04-03T05:40:00.893Z,84
2023-04-03T05:41:01.607Z,88
2023-04-03T05:42:02.531Z,96
2023-04-03T05:43:03.482Z,104
2023-04-03T05:44:03.910Z,120
2023-04-03T05:45:04.455Z,128
2023-04-03T05:46:05.592Z,120
2023-04-03T05:47:06.227Z,120
2023-04-03T05:48:06.799Z,124
2023-04-03T05:49:07.428Z,124
2023-04-03T05:50:08.107Z,120
2023-04-03T05:51:09.023Z,124
2023-04-03T05:52:09.509Z,132
2023-04-03T05:53:10.332Z,136
2023-04-03T05:54:10.338Z,132
2023-04-03T05:55:11.176Z,140
2023-04-03T05:56:11.901Z,136
2023-04-03T05:57:12.759Z,128
2023-04-03T05:58:16.840Z,124
2023-04-03T05:59:13.378Z,128
2023-04-03T06:00:13.705Z,128
2023-04-03T06:01:14.676Z,128
2023-04-03T06:02:15.174Z,136
2023-04-03T06:03:16.570Z,132
2023-04-03T06:04:16.994Z,136
2023-04-03T06:05:17.594Z,156
2023-04-03T06:06:18.297Z,160
2023-04-03T06:07:19.050Z,160
2023-04-03T06:08:20.185Z,156
2023-04-03T06:09:20.326Z,164
2023-04-03T06:10:20.844Z,152
2023-04-03T06:11:21.332Z,164
2023-04-03T06:12:21.882Z,160
2023-04-03T06:13:22.592Z,172
2023-04-03T06:14:23.009Z,172
2023-04-03T06:15:23.787Z,176
2023-04-03T06:16:24.533Z,164
2023-04-03T06:17:25.702Z,168
2023-04-03T06:18:25.874Z,180
2023-04-03T06:19:26.094Z,188
2023-04-03T06:20:26.004Z,192
2023-04-03T06:21:26.900Z,184
2023-04-03T06:22:27.383Z,184
2023-04-03T06:23:28.099Z,196
2023-04-03T06:24:28.393Z,192
2023-04-03T06:25:29.309Z,204
2023-04-03T06:26:30.408Z,204
2023-04-03T06:27:31.321Z,204
2023-04-03T06:28:33.707Z,196
2023-04-03T06:29:31.183Z,196
2023-04-03T06:30:31.910Z,204
2023-04-03T06:31:32.107Z,216
2023-04-03T06:32:32.931Z,220
2023-04-03T06:33:33.920Z,224
2023-04-03T06:34:34.707Z,228
2023-04-03T06:35:35.428Z,232
2023-04-03T06:36:36.216Z,244
2023-04-03T06:37:36.903Z,268
2023-04-03T06:38:37.410Z,280
2023-04-03T06:39:37.913Z,292
2023-04-03T06:40:38.938Z,296
2023-04-03T06:41:42.577Z,316
2023-04-03T06:42:39.084Z,336
2023-04-03T06:43:40.625Z,356
2023-04-03T06:44:40.260Z,388
2023-04-03T06:45:41.123Z,408
2023-04-03T06:46:41.371Z,412
2023-04-03T06:47:42.165Z,412
2023-04-03T06:48:43.238Z,416
2023-04-03T06:49:44.085Z,420
2023-04-03T06:50:44.441Z,424
2023-04-03T06:51:45.390Z,440
2023-04-03T06:52:46.277Z,456
2023-04-03T06:53:47.261Z,472
2023-04-03T06:54:47.897Z,476
2023-04-03T06:55:48.982Z,480
2023-04-03T06:56:48.877Z,488
2023-04-03T06:57:50.227Z,496
2023-04-03T06:58:49.796Z,492
2023-04-03T06:59:51.256Z,496
2023-04-03T07:00:51.252Z,496
2023-04-03T07:01:51.377Z,500
2023-04-03T07:02:52.422Z,496
2023-04-03T07:03:52.968Z,500
2023-04-03T07:04:53.981Z,496
2023-04-03T07:05:53.823Z,492
2023-04-03T07:06:54.559Z,484
2023-04-03T07:07:55.571Z,476
2023-04-03T07:08:55.974Z,460
2023-04-03T07:09:56.329Z,460
2023-04-03T07:10:56.019Z,460
2023-04-03T07:11:56.730Z,456
2023-04-03T07:12:57.486Z,456
2023-04-03T07:13:58.446Z,460
2023-04-03T07:14:58.922Z,452
2023-04-03T07:15:59.528Z,456
2023-04-03T07:17:00.397Z,460
2023-04-03T07:18:01.148Z,464
2023-04-03T07:19:01.075Z,460
2023-04-03T07:20:01.560Z,464
2023-04-03T07:21:02.048Z,456
2023-04-03T07:22:02.976Z,444
2023-04-03T07:23:04.243Z,448
2023-04-03T07:24:04.268Z,452
2023-04-03T07:25:04.476Z,464
2023-04-03T07:26:05.185Z,464
2023-04-03T07:27:06.307Z,484
2023-04-03T07:28:07.356Z,480
2023-04-03T07:29:08.340Z,476
2023-04-03T07:30:09.060Z,492
2023-04-03T07:31:09.928Z,508
2023-04-03T07:32:10.258Z,512
2023-04-03T07:33:10.719Z,512
2023-04-03T07:34:10.480Z,524
2023-04-03T07:35:12.710Z,524
2023-04-03T07:36:11.737Z,540
2023-04-03T07:37:11.602Z,552
2023-04-03T07:38:12.317Z,560
2023-04-03T07:39:13.245Z,556
2023-04-03T07:40:12.955Z,544
2023-04-03T07:41:14.339Z,536
2023-04-03T07:42:15.061Z,516
2023-04-03T07:43:15.804Z,524
2023-04-03T07:44:15.770Z,540
2023-04-03T07:45:16.579Z,560
2023-04-03T07:46:17.347Z,584
2023-04-03T07:47:17.184Z,584
2023-04-03T07:48:17.894Z,584
2023-04-03T07:49:18.801Z,628
2023-04-03T07:50:18.914Z,668
2023-04-03T07:51:19.626Z,664
2023-04-03T07:52:20.137Z,664
2023-04-03T07:53:20.873Z,648
2023-04-03T07:54:21.991Z,620
2023-04-03T07:55:22.255Z,620
2023-04-03T07:56:22.975Z,632
2023-04-03T07:57:23.853Z,660
2023-04-03T07:58:24.161Z,688
2023-04-03T07:59:24.141Z,716
2023-04-03T08:00:24.548Z,736
2023-04-03T08:01:25.329Z,752
2023-04-03T08:02:26.281Z,764
2023-04-03T08:03:28.195Z,792
2023-04-03T08:04:28.946Z,836
2023-04-03T08:05:28.923Z,888
2023-04-03T08:06:52.439Z,960
2023-04-03T08:07:29.773Z,996
2023-04-03T08:08:32.403Z,1048
2023-04-03T08:09:31.363Z,1108
2023-04-03T08:10:31.294Z,1172
2023-04-03T08:11:32.204Z,1224
2023-04-03T08:12:31.907Z,1284
2023-04-03T08:13:32.649Z,1380
2023-04-03T08:14:33.663Z,1540
2023-04-03T08:15:34.284Z,1752
2023-04-03T08:16:35.299Z,1976
2023-04-03T08:17:36.349Z,2136
2023-04-03T08:18:36.488Z,2456
2023-04-03T08:19:37.863Z,2764
2023-04-03T08:20:37.545Z,2516
2023-04-03T08:21:38.488Z,2564
2023-04-03T08:22:39.066Z,2536
2023-04-03T08:23:39.772Z,2604
2023-04-03T08:24:52.486Z,2528
2023-04-03T08:25:44.925Z,2460
2023-04-03T08:26:45.067Z,2504
2023-04-03T08:27:45.605Z,2804
2023-04-03T08:28:46.733Z,3560
2023-04-03T08:29:47.504Z,2500
2023-04-03T08:30:48.505Z,2360
2023-04-03T08:31:49.309Z,2288
2023-04-03T08:32:50.649Z,2468
2023-04-03T08:33:50.622Z,2596
2023-04-03T08:34:50.764Z,2592
2023-04-03T08:35:51.891Z,2560
2023-04-03T08:36:51.419Z,2560
2023-04-03T08:37:52.353Z,2620
2023-04-03T08:38:52.309Z,2656
2023-04-03T08:39:53.342Z,2632
2023-04-03T08:40:53.362Z,2604
2023-04-03T08:41:54.317Z,2568
2023-04-03T08:42:55.090Z,2508
2023-04-03T08:43:56.159Z,2480
2023-04-03T08:44:56.849Z,2484
2023-04-03T08:45:57.678Z,2464
2023-04-03T08:46:58.736Z,2408
2023-04-03T08:48:01.906Z,2312
2023-04-03T08:48:58.928Z,2264
2023-04-03T08:49:59.782Z,2240
2023-04-03T08:51:03.132Z,2220
2023-04-03T08:52:01.195Z,2188
2023-04-03T08:53:01.915Z,2200
2023-04-03T08:54:02.835Z,2236
2023-04-03T08:55:03.759Z,2268
2023-04-03T08:56:03.672Z,2240
2023-04-03T08:57:04.261Z,2152
2023-04-03T08:58:05.239Z,2056
2023-04-03T08:59:05.477Z,2028
2023-04-03T09:00:05.755Z,2028
2023-04-03T09:01:06.692Z,2072
2023-04-03T09:02:07.594Z,2196
2023-04-03T09:03:09.556Z,2356
2023-04-03T09:04:08.087Z,2516
2023-04-03T09:05:07.951Z,2600
2023-04-03T09:06:08.999Z,2648
2023-04-03T09:07:09.716Z,2796
2023-04-03T09:08:10.242Z,3084
2023-04-03T09:09:11.158Z,3052
2023-04-03T09:10:11.987Z,2904
2023-04-03T09:11:12.709Z,2868
2023-04-03T09:12:13.613Z,2988
2023-04-03T09:13:14.333Z,4108
2023-04-03T09:14:15.230Z,3228
2023-04-03T09:15:16.457Z,3404
2023-04-03T09:16:17.865Z,3076
2023-04-03T09:17:18.569Z,2892
2023-04-03T09:18:18.798Z,2776
2023-04-03T09:19:19.479Z,2832
2023-04-03T09:20:21.179Z,2836
2023-04-03T09:21:21.180Z,2892
2023-04-03T09:22:22.072Z,2892
2023-04-03T09:23:21.988Z,2940
2023-04-03T09:24:22.888Z,2916
2023-04-03T09:25:23.532Z,2952
2023-04-03T09:26:24.467Z,3048
2023-04-03T09:27:25.139Z,2924
2023-04-03T09:28:25.269Z,2884
2023-04-03T09:29:26.226Z,2948
2023-04-03T09:30:26.915Z,2932
2023-04-03T09:31:27.863Z,2904
2023-04-03T09:32:28.987Z,2708
2023-04-03T09:33:29.405Z,2708
2023-04-03T09:34:29.513Z,2928
2023-04-03T09:35:53.388Z,3208
2023-04-03T09:36:41.094Z,3232
2023-04-03T09:37:41.518Z,3168
2023-04-03T09:38:42.458Z,2976
2023-04-03T09:39:43.341Z,3140
2023-04-03T09:40:44.733Z,3076
2023-04-03T09:41:44.504Z,3172
2023-04-03T09:42:55.433Z,3336
2023-04-03T09:43:45.957Z,3304
2023-04-03T09:44:46.991Z,3328
2023-04-03T09:45:48.209Z,3336
2023-04-03T09:46:48.095Z,3428
2023-04-03T09:47:49.229Z,3524
2023-04-03T09:48:52.358Z,3620
2023-04-03T09:49:50.289Z,3796
2023-04-03T09:50:51.138Z,4048
2023-04-03T09:51:51.153Z,4120
2023-04-03T09:52:52.293Z,4164
2023-04-03T09:53:52.863Z,4224
2023-04-03T09:54:53.393Z,4176
2023-04-03T09:55:54.206Z,4240
2023-04-03T09:56:55.184Z,4452
2023-04-03T09:57:58.976Z,3944
2023-04-03T09:59:01.713Z,3888
2023-04-03T09:59:56.484Z,3740
2023-04-03T10:00:57.534Z,3364
2023-04-03T10:01:57.892Z,3296
2023-04-03T10:02:59.642Z,3164
2023-04-03T10:03:59.850Z,2960
2023-04-03T10:05:17.312Z,2576
2023-04-03T10:07:01.229Z,3408
2023-04-03T10:08:15.819Z,2840
2023-04-03T10:10:03.086Z,3404
2023-04-03T10:11:03.737Z,3760
2023-04-03T10:12:04.818Z,3324
2023-04-03T10:13:04.728Z,3708
2023-04-03T10:14:05.067Z,3188
2023-04-03T10:15:05.330Z,2712
2023-04-03T10:16:05.444Z,2748
2023-04-03T10:17:06.407Z,2868
2023-04-03T10:18:28.924Z,2988
2023-04-03T10:20:08.250Z,3192
2023-04-03T10:21:12.034Z,3172
2023-04-03T10:22:09.050Z,3008
2023-04-03T10:23:09.758Z,2916
2023-04-03T10:24:10.606Z,2864
2023-04-03T10:25:11.803Z,2468
2023-04-03T10:26:14.538Z,2308
2023-04-03T10:27:12.393Z,2832
2023-04-03T10:28:13.313Z,2784
2023-04-03T10:29:13.478Z,2660
2023-04-03T10:30:13.321Z,2600
2023-04-03T10:31:14.966Z,2612
2023-04-03T10:32:14.927Z,2724
2023-04-03T10:33:16.028Z,2916
2023-04-03T10:34:17.150Z,2972
2023-04-03T10:35:16.944Z,2868
2023-04-03T10:36:18.086Z,2940
2023-04-03T10:37:18.748Z,3128
2023-04-03T10:38:18.665Z,3232
2023-04-03T10:39:19.576Z,3304
2023-04-03T10:40:20.087Z,3488
2023-04-03T10:41:23.091Z,3640
2023-04-03T10:42:28.865Z,3832
2023-04-03T10:44:23.242Z,4092
2023-04-03T10:45:24.109Z,4084
2023-04-03T10:46:24.992Z,3984
2023-04-03T10:48:25.448Z,3672
2023-04-03T10:49:26.278Z,3560
2023-04-03T10:50:26.590Z,3444
2023-04-03T10:51:26.797Z,3300
2023-04-03T10:52:26.910Z,3156
2023-04-03T10:53:27.418Z,3108
2023-04-03T10:54:28.307Z,3164
2023-04-03T10:55:28.805Z,3244
2023-04-03T10:56:29.669Z,3516
2023-04-03T10:57:30.697Z,3664
2023-04-03T10:58:31.505Z,3744
2023-04-03T10:59:32.435Z,3796
2023-04-03T11:00:33.264Z,3740
2023-04-03T11:01:33.791Z,3756
2023-04-03T11:02:37.622Z,3820
2023-04-03T11:03:35.178Z,3580
2023-04-03T11:04:34.992Z,3448
2023-04-03T11:05:36.483Z,3340
2023-04-03T11:06:36.303Z,3228
2023-04-03T11:07:37.305Z,3044
2023-04-03T11:08:38.478Z,2932
2023-04-03T11:09:38.188Z,2864
2023-04-03T11:10:38.899Z,2716
2023-04-03T11:11:39.546Z,2540
2023-04-03T11:12:40.463Z,2232
2023-04-03T11:13:40.239Z,2036
2023-04-03T11:14:40.954Z,1936
2023-04-03T11:15:42.757Z,1996
2023-04-03T11:16:59.927Z,2100
2023-04-03T11:17:47.492Z,2068
2023-04-03T11:18:48.254Z,2028
2023-04-03T11:19:49.067Z,2044
2023-04-03T11:20:49.308Z,1992
2023-04-03T11:21:50.284Z,1948
2023-04-03T11:22:50.414Z,1920
2023-04-03T11:23:59.653Z,1880
2023-04-03T11:25:54.589Z,1800
2023-04-03T11:26:52.463Z,1700
2023-04-03T11:28:52.885Z,1364
2023-04-03T11:29:53.379Z,1272
2023-04-03T11:30:55.282Z,1220
2023-04-03T11:31:55.594Z,1176
2023-04-03T11:32:55.931Z,1080
2023-04-03T11:33:56.151Z,1040
2023-04-03T11:34:55.885Z,1060
2023-04-03T11:35:56.878Z,1088
2023-04-03T11:36:58.915Z,1120
2023-04-03T11:37:59.030Z,1144
2023-04-03T11:39:01.268Z,1172
2023-04-03T11:39:59.990Z,1176
2023-04-03T11:41:00.347Z,1180
2023-04-03T11:42:18.829Z,1180
2023-04-03T11:43:01.943Z,1176
2023-04-03T11:44:01.802Z,1168
2023-04-03T11:45:02.110Z,1156
2023-04-03T11:46:03.360Z,1144
2023-04-03T11:47:07.204Z,1140
2023-04-03T11:48:13.288Z,1136
2023-04-03T11:49:04.648Z,1136
2023-04-03T11:50:06.023Z,1128
2023-04-03T11:51:05.650Z,1112
2023-04-03T11:52:06.428Z,1096
2023-04-03T11:53:07.541Z,1072
2023-04-03T11:54:07.577Z,1056
2023-04-03T11:55:08.354Z,1036
2023-04-03T11:56:09.274Z,1012
2023-04-03T11:57:10.433Z,1000
2023-04-03T11:58:11.367Z,996
2023-04-03T11:59:12.072Z,984
2023-04-03T12:00:12.793Z,980
2023-04-03T12:01:13.857Z,984
2023-04-03T12:02:15.032Z,984
2023-04-03T12:03:15.445Z,972
2023-04-03T12:04:16.085Z,968
2023-04-03T12:05:16.248Z,964
2023-04-03T12:06:16.079Z,944
2023-04-03T12:07:16.753Z,932
2023-04-03T12:08:17.416Z,920
2023-04-03T12:09:17.895Z,888
2023-04-03T12:10:37.359Z,876
2023-04-03T12:11:19.268Z,872
2023-04-03T12:12:20.121Z,860
2023-04-03T12:13:20.831Z,852
2023-04-03T12:14:21.725Z,856
2023-04-03T12:15:22.822Z,840
2023-04-03T12:16:23.166Z,840
2023-04-03T12:17:23.237Z,836
2023-04-03T12:18:23.615Z,844
2023-04-03T12:19:39.415Z,868
2023-04-03T12:20:24.955Z,880
2023-04-03T12:21:24.805Z,892
2023-04-03T12:22:25.307Z,908
2023-04-03T12:23:25.618Z,920
2023-04-03T12:24:26.337Z,936
2023-04-03T12:25:27.250Z,956
2023-04-03T12:26:32.349Z,984
2023-04-03T12:27:29.165Z,1004
2023-04-03T12:28:29.566Z,1028
2023-04-03T12:29:30.060Z,1056
2023-04-03T12:30:30.961Z,1076
2023-04-03T12:31:31.913Z,1104
2023-04-03T12:32:32.232Z,1128
2023-04-03T12:33:32.045Z,1152
2023-04-03T12:34:33.191Z,1176
2023-04-03T12:35:34.239Z,1196
2023-04-03T12:36:34.642Z,1216
2023-04-03T12:37:35.770Z,1228
2023-04-03T12:39:36.385Z,1272
2023-04-03T12:40:37.112Z,1300
2023-04-03T12:41:37.860Z,1332
2023-04-03T12:42:38.692Z,1356
2023-04-03T12:43:39.594Z,1364
2023-04-03T12:44:40.707Z,1388
2023-04-03T12:45:41.481Z,1424
2023-04-03T12:46:41.905Z,1464
2023-04-03T12:47:41.982Z,1496
2023-04-03T12:48:42.015Z,1524
2023-04-03T12:49:42.915Z,1536
2023-04-03T12:50:43.450Z,1536
2023-04-03T12:51:43.511Z,1524
2023-04-03T12:52:44.400Z,1512
2023-04-03T12:53:45.580Z,1496
2023-04-03T12:54:45.294Z,1476
2023-04-03T12:55:46.237Z,1448
2023-04-03T12:56:46.917Z,1380
2023-04-03T12:57:47.774Z,1348
2023-04-03T12:58:48.470Z,1360
2023-04-03T12:59:49.176Z,1376
2023-04-03T13:00:50.053Z,1404
2023-04-03T13:01:51.272Z,1448
2023-04-03T13:02:51.870Z,1468
2023-04-03T13:03:52.339Z,1444
2023-04-03T13:04:52.013Z,1428
2023-04-03T13:05:53.550Z,1416
2023-04-03T13:06:53.774Z,1364
2023-04-03T13:07:54.486Z,1312
2023-04-03T13:08:55.077Z,1268
2023-04-03T13:09:55.773Z,1204
2023-04-03T13:10:56.674Z,1128
2023-04-03T13:11:57.389Z,1116
2023-04-03T13:12:58.218Z,1136
2023-04-03T13:13:59.119Z,1148
2023-04-03T13:15:00.022Z,1152
2023-04-03T13:16:01.173Z,1164
2023-04-03T13:17:00.890Z,1156
2023-04-03T13:18:02.551Z,1136
2023-04-03T13:20:03.341Z,1132
2023-04-03T13:21:03.478Z,1132
2023-04-03T13:22:03.887Z,1144
2023-04-03T13:23:04.581Z,1180
2023-04-03T13:24:21.504Z,1152
2023-04-03T13:26:05.835Z,1088
2023-04-03T13:27:06.392Z,1156
2023-04-03T13:28:21.842Z,1208
2023-04-03T13:30:09.893Z,1276
2023-04-03T13:31:10.688Z,1316
2023-04-03T13:32:12.479Z,1336
2023-04-03T13:33:12.267Z,1344
2023-04-03T13:34:12.746Z,1348
2023-04-03T13:35:26.494Z,1332
2023-04-03T13:37:14.482Z,1332
2023-04-03T13:38:15.634Z,1380
2023-04-03T13:39:15.329Z,1408
2023-04-03T13:40:16.220Z,1440
2023-04-03T13:41:17.152Z,1424
2023-04-03T13:42:17.240Z,1316
2023-04-03T13:43:17.732Z,1316
2023-04-03T13:44:23.669Z,1216
2023-04-03T13:45:18.575Z,1104
2023-04-03T13:46:19.499Z,1072
2023-04-03T13:47:20.658Z,932
2023-04-03T13:48:33.638Z,880
2023-04-03T13:50:22.017Z,1040
2023-04-03T13:51:21.753Z,1064
2023-04-03T13:52:22.728Z,1056
2023-04-03T13:53:22.748Z,1076
2023-04-03T13:54:23.461Z,1128
2023-04-03T13:55:33.575Z,1192
2023-04-03T13:57:25.529Z,1212
2023-04-03T13:58:25.598Z,1196
2023-04-03T13:59:26.434Z,1196
2023-04-03T14:00:27.129Z,1168
2023-04-03T14:01:28.245Z,1104
2023-04-03T14:02:28.946Z,1064
2023-04-03T14:03:29.770Z,1036
2023-04-03T14:04:30.729Z,980
2023-04-03T14:05:31.681Z,932
2023-04-03T14:06:32.678Z,988
2023-04-03T14:07:33.598Z,1040
2023-04-03T14:08:49.313Z,1076
2023-04-03T14:10:37.764Z,1188
2023-04-03T14:11:39.857Z,1148
2023-04-03T14:12:42.629Z,1128
2023-04-03T14:13:39.490Z,1128
2023-04-03T14:14:40.208Z,1128
2023-04-03T14:15:40.576Z,1108
2023-04-03T14:16:41.367Z,1104
2023-04-03T14:17:42.236Z,1100
2023-04-03T14:18:42.778Z,1056
2023-04-03T14:19:43.348Z,956
2023-04-03T14:20:44.647Z,876